Track Телепнев Михаил Хабаровский край

Time Latitude Longitude Accuracy (66% radius in meters) Altitude (meters) Speed (km/hour) Bearing (degrees) Battery (%) GPS flag
06:12:33 43.171347 132.075763 4.5 79 0.03999999910593 131.75903320312 28 1 delete
06:12:09 43.171306 132.075738 6 76.599998474121 0.10999999940395 142.20703125 28 1 delete
06:11:54 43.171286 132.075829 5 76.699996948242 0.50999999046326 152.10021972656 28 1 delete
06:10:57 43.171335 132.075820 4.5 68.199996948242 0.94999998807907 338.39538574219 28 1 delete
06:08:32 43.171289 132.075805 4.5 67.199996948242 0.25999999046326 251.04858398438 28 1 delete
06:08:08 43.171278 132.075742 5.5 64.5 0 0 28 1 delete
06:07:47 43.171330 132.075727 5.5 72.800003051758 0.1499999910593 223.61022949219 28 1 delete
06:07:00 43.171355 132.075824 3.5 72.199996948242 0.43999999761581 28.438110351562 28 1 delete
06:06:38 43.171324 132.075761 3.5 71.400001525879 0.41999998688698 359.61547851562 28 1 delete
06:06:32 43.171254 132.075770 4 70.300003051758 0.93999999761581 349.99145507812 28 1 delete
06:06:26 43.171173 132.075793 3.5 70 0.78999996185303 343.212890625 28 1 delete
06:06:16 43.171089 132.075827 4 70.699996948242 0.69999998807907 328.34289550781 28 1 delete
06:06:13 43.171049 132.075863 4.5 70.900001525879 1 289.34692382812 28 1 delete
06:06:06 43.170959 132.075923 4 71.900001525879 0.84999996423721 341.71325683594 28 1 delete
06:06:03 43.170907 132.075948 4.5 70.599998474121 1.0099999904633 338.84582519531 28 1 delete
06:06:00 43.170843 132.075972 4 71.400001525879 1.0799999237061 331.63879394531 28 1 delete
06:05:54 43.170786 132.075998 5.5 72.400001525879 0 0 28 1 delete
06:05:47 43.170745 132.075961 5.5 76 0.55000001192093 336.04431152344 28 1 delete
06:04:58 43.170785 132.076011 3.5 81 0.029999999329448 57.859497070312 28 1 delete
06:04:15 43.170762 132.076086 7.5 76 0.28999999165535 155.42907714844 28 1 delete
06:04:06 43.170807 132.076110 6.5 74.199996948242 0.58999997377396 153.91845703125 28 1 delete
06:03:51 43.170846 132.076045 3 68.699996948242 0.0099999997764826 171.42517089844 28 1 delete
06:01:54 43.170862 132.076025 2.5 64.099998474121 0 0 28 1 delete
05:58:33 43.170862 132.076025 2.5 64.099998474121 0 0 34 1 delete
05:55:12 43.170875 132.076001 2.5 58.5 0 0 34 1 delete
05:51:48 43.170875 132.076001 4.5 58.5 0 0 34 1 delete
05:51:18 43.170863 132.075985 4 60 0 0 34 1 delete
05:48:24 43.170790 132.075992 3.5 63.200000762939 0 0 34 1 delete
05:48:00 43.170791 132.075992 4 63.099998474121 0.029999999329448 340.21911621094 34 1 delete
05:45:03 43.170877 132.076036 5.5 69.599998474121 0 0 34 1 delete
05:43:33 43.170840 132.076009 5 69.699996948242 0.55000001192093 20.36865234375 34 1 delete
05:41:42 43.170816 132.076072 3 70.5 0 0 34 1 delete
05:41:30 43.170807 132.076069 3 71 0.059999998658895 103.68896484375 34 1 delete
05:38:21 43.170757 132.076059 3 76.800003051758 0 0 41 1 delete
05:37:09 43.170757 132.076059 4.5 76.800003051758 0.0099999997764826 30.289306640625 41 1 delete
05:35:00 43.170815 132.076047 5 67.300003051758 0 0 41 1 delete
05:31:39 43.170815 132.076047 4 67.300003051758 0 0 41 1 delete
05:28:15 43.170815 132.076047 3 67.300003051758 0 0 41 1 delete
05:25:57 43.170816 132.076041 4 67.800003051758 0 336.03881835938 41 1 delete
05:24:54 43.170766 132.075993 3 67.5 0 0 41 1 delete
05:21:33 43.170758 132.075987 3.5 67.599998474121 0 0 41 1 delete
05:18:12 43.170758 132.075987 2 67.599998474121 0 0 48 1 delete
05:14:48 43.170758 132.075987 2.5 67.599998474121 0 0 48 1 delete
05:11:27 43.170758 132.075998 3 67.900001525879 0 0 48 1 delete
05:07:39 43.170758 132.075998 3.5 67.900001525879 0 0 48 1 delete
05:06:42 43.170776 132.076010 3.5 69.800003051758 0.03999999910593 205.96618652344 48 1 delete
05:06:21 43.170811 132.075967 4.5 68.300003051758 0 0 48 1 delete
05:06:06 43.170764 132.075930 6.5 65.599998474121 0 0 48 1 delete
05:05:19 43.170785 132.075988 5.5 65.199996948242 0.25 30.78369140625 48 1 delete
05:04:19 43.170741 132.075976 2.5 67.800003051758 0 0 48 1 delete